Tina, Missouri
Current Conditions -  °F | °C
As of 8:35 AM on Monday 20 Oct 2014 (Local Time) from KGPH Reporting Station
Overcast Overcast  
Wind Chill: 45°   Ceiling: 100
Heat Index: 45°   Visibility: 10mi
Dew Point: 45°   Wind: 0mph
Humidity: 100%   Direction: NA
Pressure: 30.02"   Gusts: NA
Location:  39.54°N, 93.44°W
Report Text: KGPH 201335Z AUTO 00000KT 10SM OVC001 07/07 A3002 RMK AO2
Loading
Personal Weather Stations






























Interactive Weather Map
Tropical Storm Tracking
New forecast layout! Learn more

10-Day Weather Forecast

Advertisements
Track Severe Weather on mobile